Time;durP1;ratioP1;P1;durP2;ratioP2;P2;SDS_P1;SDS_P2;PMS_P1;PMS_P2;Temp;Humidity;BMP_temperature;BMP_pressure;BME280_temperature;BME280_humidity;BME280_pressure;Samples;Min_cycle;Max_cycle;Signal;HPM_P1;HPM_P2
2023/01/08 00:02:06;;;;;;;9.95;4.72;;;;;;;;;;4969276;28;20497;-73
2023/01/08 00:04:33;;;;;;;14.18;5.47;;;;;;;;;;4970916;28;20058;-74
2023/01/08 00:07:01;;;;;;;11.43;5.72;;;;;;;;;;4969722;28;20050;-74
2023/01/08 00:09:28;;;;;;;11.75;6.25;;;;;;;;;;4972789;28;20510;-74
2023/01/08 00:11:55;;;;;;;9.88;4.90;;;;;;;;;;4959973;28;20058;-74
2023/01/08 00:14:22;;;;;;;8.43;4.50;;;;;;;;;;4972807;28;20047;-74
2023/01/08 00:16:51;;;;;;;11.75;5.45;;;;;;;;;;4968596;28;20062;-74
2023/01/08 00:19:18;;;;;;;9.90;5.05;;;;;;;;;;4968315;28;20055;-74
2023/01/08 00:21:46;;;;;;;10.73;5.00;;;;;;;;;;4971292;28;20039;-74
2023/01/08 00:24:13;;;;;;;10.80;4.63;;;;;;;;;;4969030;28;20050;-74
2023/01/08 00:26:40;;;;;;;8.80;4.60;;;;;;;;;;4971631;28;20073;-74
2023/01/08 00:29:07;;;;;;;8.75;4.40;;;;;;;;;;4969649;28;20055;-74
2023/01/08 00:31:34;;;;;;;9.38;4.72;;;;;;;;;;4971375;28;20497;-74
2023/01/08 00:34:03;;;;;;;10.57;3.97;;;;;;;;;;4972665;28;20043;-74
2023/01/08 00:36:30;;;;;;;9.05;3.88;;;;;;;;;;4965222;28;20054;-73
2023/01/08 00:38:59;;;;;;;9.40;4.00;;;;;;;;;;4966412;28;20062;-74
2023/01/08 00:41:26;;;;;;;11.50;4.13;;;;;;;;;;4971720;28;20086;-74
2023/01/08 00:43:53;;;;;;;7.65;3.83;;;;;;;;;;4971601;28;20057;-74
2023/01/08 00:46:21;;;;;;;10.85;3.78;;;;;;;;;;4964140;28;20058;-74
2023/01/08 00:48:48;;;;;;;11.88;3.22;;;;;;;;;;4964563;28;20120;-74
2023/01/08 00:51:17;;;;;;;8.23;3.55;;;;;;;;;;4968031;28;20059;-74
2023/01/08 00:53:44;;;;;;;8.32;3.28;;;;;;;;;;4966160;28;20082;-74
2023/01/08 00:56:11;;;;;;;10.48;3.30;;;;;;;;;;4971711;28;20059;-74
2023/01/08 00:58:39;;;;;;;11.30;2.67;;;;;;;;;;4970460;28;20051;-73
2023/01/08 01:01:10;;;;;;;11.95;3.00;;;;;;;;;;4968728;28;20058;-73
2023/01/08 01:03:37;;;;;;;7.85;2.35;;;;;;;;;;4966161;28;20051;-74
2023/01/08 01:06:05;;;;;;;7.57;2.60;;;;;;;;;;4968913;28;20101;-73
2023/01/08 01:08:33;;;;;;;9.50;2.60;;;;;;;;;;4963859;28;20058;-74
2023/01/08 01:11:01;;;;;;;9.95;2.15;;;;;;;;;;4969976;28;20081;-73
2023/01/08 01:13:28;;;;;;;9.13;2.50;;;;;;;;;;4969670;28;20151;-74
2023/01/08 01:15:59;;;;;;;13.43;2.50;;;;;;;;;;4971962;28;20127;-74
2023/01/08 01:18:26;;;;;;;9.20;2.42;;;;;;;;;;4966095;28;20058;-74
2023/01/08 01:20:53;;;;;;;9.95;2.38;;;;;;;;;;4973076;28;20125;-74
2023/01/08 01:23:20;;;;;;;11.93;2.67;;;;;;;;;;4962940;28;20051;-73
2023/01/08 01:25:49;;;;;;;13.18;2.38;;;;;;;;;;4972042;28;20055;-74
2023/01/08 01:28:16;;;;;;;12.52;2.67;;;;;;;;;;4970580;28;20082;-74
2023/01/08 01:30:43;;;;;;;10.15;1.83;;;;;;;;;;4971302;28;20057;-74
2023/01/08 01:33:11;;;;;;;12.63;2.05;;;;;;;;;;4967692;28;20074;-73
2023/01/08 01:35:38;;;;;;;10.82;2.25;;;;;;;;;;4965091;28;20062;-74
2023/01/08 01:38:05;;;;;;;10.07;2.33;;;;;;;;;;4964158;28;20046;-74
2023/01/08 01:40:32;;;;;;;9.85;1.95;;;;;;;;;;4966776;28;20051;-72
2023/01/08 01:43:01;;;;;;;11.55;2.92;;;;;;;;;;4962223;28;20054;-74
2023/01/08 01:45:28;;;;;;;17.98;2.38;;;;;;;;;;4963573;28;20054;-73
2023/01/08 01:47:58;;;;;;;12.63;2.10;;;;;;;;;;4965037;28;20119;-74
2023/01/08 01:50:28;;;;;;;10.35;2.05;;;;;;;;;;4963352;28;20172;-73
2023/01/08 01:52:58;;;;;;;9.35;2.33;;;;;;;;;;4970973;28;20458;-73
2023/01/08 01:55:26;;;;;;;17.23;2.50;;;;;;;;;;4959272;28;20047;-73
2023/01/08 01:57:59;;;;;;;8.30;1.63;;;;;;;;;;4964456;28;20070;-73
2023/01/08 02:00:28;;;;;;;9.00;1.80;;;;;;;;;;4966475;28;20051;-73
2023/01/08 02:02:55;;;;;;;12.40;2.17;;;;;;;;;;4967913;28;20098;-74
2023/01/08 02:05:23;;;;;;;11.52;1.42;;;;;;;;;;4971396;28;20059;-74
2023/01/08 02:07:53;;;;;;;10.65;1.58;;;;;;;;;;4967094;28;20060;-74
2023/01/08 02:10:23;;;;;;;12.75;2.10;;;;;;;;;;4964211;28;20074;-72
2023/01/08 02:12:52;;;;;;;13.70;2.00;;;;;;;;;;4963899;28;20057;-74
2023/01/08 02:15:22;;;;;;;15.65;2.10;;;;;;;;;;4959289;28;20429;-72
2023/01/08 02:17:54;;;;;;;11.38;1.90;;;;;;;;;;4970247;28;20051;-74
2023/01/08 02:20:24;;;;;;;12.90;1.95;;;;;;;;;;4968802;28;20083;-73
2023/01/08 02:23:10;;;;;;;10.70;1.88;;;;;;;;;;4965717;28;20426;-73
2023/01/08 02:25:44;;;;;;;11.65;1.98;;;;;;;;;;4967057;28;20059;-74
2023/01/08 02:28:14;;;;;;;14.18;2.28;;;;;;;;;;4967769;28;20421;-73
2023/01/08 02:30:42;;;;;;;12.18;1.70;;;;;;;;;;4970261;28;20051;-74
2023/01/08 02:33:11;;;;;;;14.52;2.42;;;;;;;;;;4967692;28;20137;-73
2023/01/08 02:35:40;;;;;;;12.60;2.53;;;;;;;;;;4967672;28;20064;-74
2023/01/08 02:38:10;;;;;;;18.35;1.95;;;;;;;;;;4966147;28;20043;-74
2023/01/08 02:40:40;;;;;;;16.90;2.03;;;;;;;;;;4972598;28;20066;-74
2023/01/08 02:43:10;;;;;;;15.55;2.50;;;;;;;;;;4964019;28;20426;-73
2023/01/08 02:45:43;;;;;;;16.20;2.40;;;;;;;;;;4962664;28;20050;-73
2023/01/08 02:48:13;;;;;;;17.25;2.20;;;;;;;;;;4964738;28;20121;-73
2023/01/08 02:50:42;;;;;;;16.75;3.75;;;;;;;;;;4971983;28;20050;-73
2023/01/08 02:53:12;;;;;;;19.35;3.22;;;;;;;;;;4960524;28;20058;-73
2023/01/08 02:55:41;;;;;;;19.63;2.25;;;;;;;;;;4958227;28;20059;-73
2023/01/08 02:58:08;;;;;;;23.00;2.63;;;;;;;;;;4963516;28;20050;-73
2023/01/08 03:00:36;;;;;;;19.70;2.90;;;;;;;;;;4966489;28;20051;-73
2023/01/08 03:03:09;;;;;;;18.17;2.20;;;;;;;;;;4969134;28;20510;-74
2023/01/08 03:05:38;;;;;;;17.80;1.83;;;;;;;;;;4965020;28;20066;-74
2023/01/08 03:08:06;;;;;;;24.50;2.40;;;;;;;;;;4964697;28;20061;-73
2023/01/08 03:10:33;;;;;;;16.30;2.75;;;;;;;;;;4968237;28;20051;-73
2023/01/08 03:13:02;;;;;;;17.95;2.13;;;;;;;;;;4965705;28;20062;-73
2023/01/08 03:15:32;;;;;;;23.55;3.08;;;;;;;;;;4969938;28;20077;-74
2023/01/08 03:18:01;;;;;;;18.15;2.00;;;;;;;;;;4967992;28;20143;-73
2023/01/08 03:20:30;;;;;;;22.02;2.13;;;;;;;;;;4969134;28;20054;-73
2023/01/08 03:22:59;;;;;;;23.05;2.45;;;;;;;;;;4966283;28;20058;-73
2023/01/08 03:25:28;;;;;;;19.92;3.08;;;;;;;;;;4958753;28;20074;-73
2023/01/08 03:27:57;;;;;;;20.83;2.20;;;;;;;;;;4970087;28;20414;-73
2023/01/08 03:30:25;;;;;;;21.42;2.47;;;;;;;;;;4961196;28;20058;-73
2023/01/08 03:32:54;;;;;;;21.00;2.75;;;;;;;;;;4964289;28;20046;-74
2023/01/08 03:35:23;;;;;;;22.88;2.45;;;;;;;;;;4966029;28;20061;-73
2023/01/08 03:37:55;;;;;;;18.00;2.28;;;;;;;;;;4965098;28;20054;-73
2023/01/08 03:40:24;;;;;;;26.95;3.28;;;;;;;;;;4967119;28;20062;-74
2023/01/08 03:42:51;;;;;;;18.73;2.47;;;;;;;;;;4968101;28;20090;-73
2023/01/08 03:45:18;;;;;;;18.77;2.15;;;;;;;;;;4967274;28;20055;-74
2023/01/08 03:47:46;;;;;;;12.50;2.75;;;;;;;;;;4963844;28;20403;-73
2023/01/08 03:50:16;;;;;;;19.33;2.10;;;;;;;;;;4968318;28;20065;-73
2023/01/08 03:52:43;;;;;;;13.38;1.70;;;;;;;;;;4970587;28;20050;-74
2023/01/08 03:55:12;;;;;;;10.68;1.60;;;;;;;;;;4967132;28;20047;-74
2023/01/08 03:57:39;;;;;;;13.35;1.85;;;;;;;;;;4963673;28;20055;-74
2023/01/08 04:00:07;;;;;;;15.40;2.50;;;;;;;;;;4962965;28;20043;-74
2023/01/08 04:02:34;;;;;;;9.48;1.90;;;;;;;;;;4967059;28;20051;-73
2023/01/08 04:05:02;;;;;;;14.93;1.80;;;;;;;;;;4968549;28;20051;-74
2023/01/08 04:07:29;;;;;;;12.90;2.17;;;;;;;;;;4966186;28;20046;-73
2023/01/08 04:09:56;;;;;;;13.27;1.70;;;;;;;;;;4964570;28;20043;-74
2023/01/08 04:12:25;;;;;;;15.40;3.47;;;;;;;;;;4963462;28;20403;-74
2023/01/08 04:14:52;;;;;;;11.63;2.15;;;;;;;;;;4961592;28;20362;-73
2023/01/08 04:17:19;;;;;;;10.70;1.92;;;;;;;;;;4965724;28;20066;-73
2023/01/08 04:19:47;;;;;;;19.25;2.20;;;;;;;;;;4967500;28;20065;-74
2023/01/08 04:22:14;;;;;;;15.18;2.00;;;;;;;;;;4964971;28;20057;-74
2023/01/08 04:24:41;;;;;;;10.32;2.58;;;;;;;;;;4965268;28;20054;-74
2023/01/08 04:27:08;;;;;;;13.68;2.30;;;;;;;;;;4968713;28;20374;-73
2023/01/08 04:29:37;;;;;;;12.25;1.92;;;;;;;;;;4968609;28;20058;-73
2023/01/08 04:32:04;;;;;;;11.80;2.20;;;;;;;;;;4965554;28;20065;-74
2023/01/08 04:34:32;;;;;;;10.55;2.35;;;;;;;;;;4969567;28;20073;-74
2023/01/08 04:36:59;;;;;;;9.30;1.88;;;;;;;;;;4961524;28;20498;-73
2023/01/08 04:39:26;;;;;;;10.43;2.13;;;;;;;;;;4970524;28;20490;-74
2023/01/08 04:41:54;;;;;;;12.45;2.25;;;;;;;;;;4964701;28;20051;-73
2023/01/08 04:44:21;;;;;;;13.60;2.00;;;;;;;;;;4965178;28;20556;-73
2023/01/08 04:46:49;;;;;;;12.70;2.40;;;;;;;;;;4963720;28;20051;-73
2023/01/08 04:49:17;;;;;;;10.43;2.30;;;;;;;;;;4970897;28;20054;-74
2023/01/08 04:51:44;;;;;;;10.82;2.10;;;;;;;;;;4969805;28;20051;-74
2023/01/08 04:54:11;;;;;;;9.77;2.08;;;;;;;;;;4973093;28;20047;-74
2023/01/08 04:56:39;;;;;;;8.57;2.08;;;;;;;;;;4961996;28;20425;-73
2023/01/08 04:59:06;;;;;;;10.32;1.95;;;;;;;;;;4962734;28;20051;-74
2023/01/08 05:01:33;;;;;;;10.90;2.05;;;;;;;;;;4969766;28;20051;-73
2023/01/08 05:04:02;;;;;;;14.15;2.40;;;;;;;;;;4967863;28;20086;-73
2023/01/08 05:06:30;;;;;;;10.50;2.20;;;;;;;;;;4971268;28;20260;-73
2023/01/08 05:08:58;;;;;;;11.70;2.83;;;;;;;;;;4970468;28;20397;-73
2023/01/08 05:11:25;;;;;;;12.32;2.47;;;;;;;;;;4976576;28;20058;-74
2023/01/08 05:13:53;;;;;;;11.52;2.10;;;;;;;;;;4966549;28;20046;-73
2023/01/08 05:16:20;;;;;;;13.65;2.75;;;;;;;;;;4972499;28;20068;-73
2023/01/08 05:18:48;;;;;;;9.13;1.80;;;;;;;;;;4970977;28;20066;-73
2023/01/08 05:21:17;;;;;;;6.78;1.65;;;;;;;;;;4965787;28;20047;-73
2023/01/08 05:23:46;;;;;;;9.25;2.00;;;;;;;;;;4971813;28;20501;-74
2023/01/08 05:26:13;;;;;;;12.23;1.90;;;;;;;;;;4964267;28;20169;-74
2023/01/08 05:28:41;;;;;;;13.38;1.92;;;;;;;;;;4968058;28;20081;-74
2023/01/08 05:31:08;;;;;;;11.43;1.70;;;;;;;;;;4969442;28;20046;-72
2023/01/08 05:33:35;;;;;;;7.43;1.50;;;;;;;;;;4966719;28;20047;-73
2023/01/08 05:36:04;;;;;;;14.60;2.03;;;;;;;;;;4964999;28;20055;-73
2023/01/08 05:38:33;;;;;;;10.43;1.52;;;;;;;;;;4959755;28;20054;-73
2023/01/08 05:41:00;;;;;;;7.20;1.48;;;;;;;;;;4963651;28;20498;-72
2023/01/08 05:43:28;;;;;;;11.50;1.50;;;;;;;;;;4969262;28;20073;-73
2023/01/08 05:45:55;;;;;;;12.93;1.80;;;;;;;;;;4970019;28;20065;-73
2023/01/08 05:48:22;;;;;;;7.78;1.40;;;;;;;;;;4971699;28;20131;-73
2023/01/08 05:50:50;;;;;;;6.72;1.48;;;;;;;;;;4971758;28;20501;-73
2023/01/08 05:53:17;;;;;;;13.00;1.48;;;;;;;;;;4967581;28;20054;-73
2023/01/08 05:55:46;;;;;;;12.43;1.70;;;;;;;;;;4964373;28;20410;-73
2023/01/08 05:58:13;;;;;;;7.50;1.30;;;;;;;;;;4970323;28;20043;-73
2023/01/08 06:00:40;;;;;;;12.80;1.40;;;;;;;;;;4971369;28;20502;-74
2023/01/08 06:03:08;;;;;;;8.00;1.50;;;;;;;;;;4965149;28;20383;-73
2023/01/08 06:05:35;;;;;;;7.35;1.45;;;;;;;;;;4967677;28;20507;-73
2023/01/08 06:08:02;;;;;;;6.80;1.60;;;;;;;;;;4970467;28;20066;-73
2023/01/08 06:10:29;;;;;;;8.63;2.00;;;;;;;;;;4969349;28;20058;-73
2023/01/08 06:12:58;;;;;;;6.63;1.33;;;;;;;;;;4968171;28;20051;-73
2023/01/08 06:15:25;;;;;;;12.07;2.50;;;;;;;;;;4970181;28;20490;-73
2023/01/08 06:17:52;;;;;;;8.00;1.30;;;;;;;;;;4965528;28;20047;-73
2023/01/08 06:20:19;;;;;;;11.02;1.20;;;;;;;;;;4968149;28;20070;-73
2023/01/08 06:22:47;;;;;;;7.63;1.40;;;;;;;;;;4964688;28;20049;-72
2023/01/08 06:25:14;;;;;;;4.57;1.00;;;;;;;;;;4960489;28;20494;-73
2023/01/08 06:27:41;;;;;;;12.73;1.58;;;;;;;;;;4965589;28;20050;-73
2023/01/08 06:30:10;;;;;;;11.82;1.42;;;;;;;;;;4969356;28;20079;-73
2023/01/08 06:32:37;;;;;;;14.13;2.28;;;;;;;;;;4970330;28;20871;-73
2023/01/08 06:35:05;;;;;;;8.85;1.38;;;;;;;;;;4962940;28;20066;-73
2023/01/08 06:37:32;;;;;;;11.15;1.70;;;;;;;;;;4960061;28;20406;-72
2023/01/08 06:39:59;;;;;;;9.60;1.33;;;;;;;;;;4961674;28;20055;-73
2023/01/08 06:42:26;;;;;;;9.05;1.50;;;;;;;;;;4960499;28;20047;-73
2023/01/08 06:44:54;;;;;;;13.32;2.17;;;;;;;;;;4960702;28;20058;-73
2023/01/08 06:47:22;;;;;;;14.30;1.73;;;;;;;;;;4961233;28;20527;-73
2023/01/08 06:49:49;;;;;;;14.02;1.92;;;;;;;;;;4962864;28;20405;-73
2023/01/08 06:52:17;;;;;;;7.93;1.48;;;;;;;;;;4959793;28;20058;-72
2023/01/08 06:54:44;;;;;;;13.27;1.60;;;;;;;;;;4964861;28;20482;-73
2023/01/08 06:57:11;;;;;;;11.63;1.90;;;;;;;;;;4967339;28;20287;-72
2023/01/08 06:59:38;;;;;;;12.43;1.60;;;;;;;;;;4966937;28;20062;-73
2023/01/08 07:02:06;;;;;;;16.63;2.47;;;;;;;;;;4968282;28;20069;-73
2023/01/08 07:04:34;;;;;;;12.32;1.95;;;;;;;;;;4966510;28;20058;-72
2023/01/08 07:07:02;;;;;;;15.63;1.90;;;;;;;;;;4962201;28;20043;-73
2023/01/08 07:09:29;;;;;;;8.75;2.42;;;;;;;;;;4963721;28;20061;-73
2023/01/08 07:11:56;;;;;;;13.82;2.00;;;;;;;;;;4959007;28;20086;-73
2023/01/08 07:14:23;;;;;;;14.75;1.70;;;;;;;;;;4959960;28;20509;-73
2023/01/08 07:16:51;;;;;;;14.68;2.20;;;;;;;;;;4961786;28;20062;-72
2023/01/08 07:19:18;;;;;;;13.23;2.22;;;;;;;;;;4964482;28;20055;-72
2023/01/08 07:21:46;;;;;;;16.27;2.40;;;;;;;;;;4958586;28;20479;-73
2023/01/08 07:24:14;;;;;;;12.45;2.28;;;;;;;;;;4960259;28;20383;-72
2023/01/08 07:26:41;;;;;;;9.50;1.65;;;;;;;;;;4961886;28;20043;-73
2023/01/08 07:29:08;;;;;;;11.00;1.48;;;;;;;;;;4963240;28;20351;-73
2023/01/08 07:31:35;;;;;;;11.18;1.83;;;;;;;;;;4958813;28;20056;-73
2023/01/08 07:34:02;;;;;;;18.17;2.40;;;;;;;;;;4961527;28;20054;-73
2023/01/08 07:36:30;;;;;;;12.35;1.80;;;;;;;;;;4957056;28;20059;-73
2023/01/08 07:38:58;;;;;;;11.15;1.92;;;;;;;;;;4963414;28;20050;-73
2023/01/08 07:41:26;;;;;;;15.68;2.22;;;;;;;;;;4965281;28;20051;-73
2023/01/08 07:43:53;;;;;;;12.52;1.70;;;;;;;;;;4961767;28;20058;-73
2023/01/08 07:46:21;;;;;;;11.23;2.00;;;;;;;;;;4955573;28;20522;-72
2023/01/08 07:48:49;;;;;;;10.85;2.00;;;;;;;;;;4959583;28;20401;-73
2023/01/08 07:51:16;;;;;;;9.52;2.00;;;;;;;;;;4958859;28;20054;-73
2023/01/08 07:53:43;;;;;;;13.35;2.10;;;;;;;;;;4965017;28;20054;-73
2023/01/08 07:56:12;;;;;;;17.60;3.45;;;;;;;;;;4959401;28;20039;-73
2023/01/08 07:58:39;;;;;;;14.73;3.10;;;;;;;;;;4961106;28;20051;-72
2023/01/08 08:01:10;;;;;;;12.02;2.90;;;;;;;;;;4957103;28;20043;-74
2023/01/08 08:03:38;;;;;;;13.52;2.30;;;;;;;;;;4954718;28;20059;-74
2023/01/08 08:06:05;;;;;;;12.88;2.90;;;;;;;;;;4956302;28;20053;-73
2023/01/08 08:08:33;;;;;;;11.50;2.90;;;;;;;;;;4959497;28;20397;-73
2023/01/08 08:11:00;;;;;;;10.45;2.63;;;;;;;;;;4960813;28;20055;-72
2023/01/08 08:13:29;;;;;;;12.23;2.35;;;;;;;;;;4956386;28;20054;-73
2023/01/08 08:15:56;;;;;;;16.40;3.13;;;;;;;;;;4965674;28;20054;-74
2023/01/08 08:18:29;;;;;;;16.05;2.88;;;;;;;;;;4961218;28;20055;-73
2023/01/08 08:20:57;;;;;;;11.63;2.53;;;;;;;;;;4961180;28;20047;-73
2023/01/08 08:23:24;;;;;;;12.65;2.38;;;;;;;;;;4961157;28;20082;-73
2023/01/08 08:25:51;;;;;;;10.32;2.05;;;;;;;;;;4965352;28;20133;-74
2023/01/08 08:28:18;;;;;;;12.50;2.72;;;;;;;;;;4968244;28;20051;-73
2023/01/08 08:30:47;;;;;;;14.10;2.42;;;;;;;;;;4963335;28;20051;-73
2023/01/08 08:33:14;;;;;;;13.32;2.40;;;;;;;;;;4958562;28;20066;-73
2023/01/08 08:35:41;;;;;;;9.55;2.60;;;;;;;;;;4969071;28;20057;-73
2023/01/08 08:38:09;;;;;;;10.32;2.25;;;;;;;;;;4961758;28;20078;-73
2023/01/08 08:40:36;;;;;;;11.82;2.50;;;;;;;;;;4969565;28;20058;-72
2023/01/08 08:43:04;;;;;;;15.88;2.10;;;;;;;;;;4967733;28;20047;-73
2023/01/08 08:45:32;;;;;;;16.85;2.55;;;;;;;;;;4965065;28;20498;-75
2023/01/08 08:48:00;;;;;;;17.38;2.03;;;;;;;;;;4966452;28;20066;-74
2023/01/08 08:50:27;;;;;;;12.23;2.10;;;;;;;;;;4961638;28;20051;-74
2023/01/08 08:52:59;;;;;;;16.63;2.10;;;;;;;;;;4962699;28;20046;-73
2023/01/08 08:55:26;;;;;;;11.60;1.85;;;;;;;;;;4967991;28;20051;-74
2023/01/08 08:57:53;;;;;;;12.27;1.92;;;;;;;;;;4963380;28;20064;-72
2023/01/08 09:00:21;;;;;;;14.90;2.20;;;;;;;;;;4967519;28;20093;-73
2023/01/08 09:02:50;;;;;;;10.85;2.05;;;;;;;;;;4966966;28;20055;-72
2023/01/08 09:05:19;;;;;;;12.98;1.77;;;;;;;;;;4967015;28;20078;-73
2023/01/08 09:07:46;;;;;;;21.08;2.53;;;;;;;;;;4961168;28;20520;-73
2023/01/08 09:10:13;;;;;;;11.88;2.00;;;;;;;;;;4959839;28;20046;-73
2023/01/08 09:12:40;;;;;;;8.93;2.10;;;;;;;;;;4968412;28;20055;-73
2023/01/08 09:15:08;;;;;;;12.75;2.40;;;;;;;;;;4959636;28;20046;-73
2023/01/08 09:17:36;;;;;;;12.10;3.10;;;;;;;;;;4963596;28;20527;-73
2023/01/08 09:20:03;;;;;;;8.73;2.50;;;;;;;;;;4965831;28;20054;-73
2023/01/08 09:22:32;;;;;;;11.77;2.90;;;;;;;;;;4956675;28;20047;-72
2023/01/08 09:24:59;;;;;;;12.18;2.67;;;;;;;;;;4966741;28;20047;-73
2023/01/08 09:27:26;;;;;;;15.38;3.00;;;;;;;;;;4963930;28;20391;-72
2023/01/08 09:29:53;;;;;;;14.95;2.58;;;;;;;;;;4956927;28;20059;-72
2023/01/08 09:32:20;;;;;;;16.20;2.35;;;;;;;;;;4960903;28;20051;-73
2023/01/08 09:34:48;;;;;;;11.32;2.10;;;;;;;;;;4959470;28;20062;-73
2023/01/08 09:37:15;;;;;;;16.75;2.75;;;;;;;;;;4962738;28;20057;-73
2023/01/08 09:39:44;;;;;;;11.00;2.92;;;;;;;;;;4971216;28;20134;-73
2023/01/08 09:42:12;;;;;;;15.00;2.30;;;;;;;;;;4967619;28;20069;-73
2023/01/08 09:44:40;;;;;;;15.98;2.58;;;;;;;;;;4967724;28;20054;-73
2023/01/08 09:47:15;;;;;;;16.13;2.50;;;;;;;;;;4957573;28;20055;-73
2023/01/08 09:49:44;;;;;;;14.18;2.70;;;;;;;;;;4960342;28;20178;-73
2023/01/08 09:52:12;;;;;;;17.55;2.33;;;;;;;;;;4964464;28;20434;-73
2023/01/08 09:54:41;;;;;;;19.40;2.63;;;;;;;;;;4967660;28;20055;-74
2023/01/08 09:57:13;;;;;;;15.35;2.78;;;;;;;;;;4969842;28;20066;-73
2023/01/08 09:59:41;;;;;;;16.73;2.92;;;;;;;;;;4964060;28;20058;-73
2023/01/08 10:02:12;;;;;;;11.80;2.85;;;;;;;;;;4957424;28;20074;-73
2023/01/08 10:04:39;;;;;;;16.85;1.88;;;;;;;;;;4963094;28;20066;-73
2023/01/08 10:07:11;;;;;;;11.68;2.58;;;;;;;;;;4961766;28;20043;-73
2023/01/08 10:09:40;;;;;;;14.52;2.03;;;;;;;;;;4983322;28;20066;-73
2023/01/08 10:12:08;;;;;;;14.43;2.35;;;;;;;;;;4964116;28;20059;-73
2023/01/08 10:14:37;;;;;;;13.40;2.15;;;;;;;;;;4975750;28;20520;-74
2023/01/08 10:17:08;;;;;;;11.70;2.30;;;;;;;;;;4969268;28;20062;-72
2023/01/08 10:19:35;;;;;;;13.15;1.88;;;;;;;;;;4964980;28;20528;-73
2023/01/08 10:22:03;;;;;;;14.13;2.13;;;;;;;;;;4963091;28;20057;-72
2023/01/08 10:24:34;;;;;;;10.45;1.90;;;;;;;;;;4963220;28;20050;-73
2023/01/08 10:27:09;;;;;;;13.52;2.40;;;;;;;;;;4968198;28;20064;-73
2023/01/08 10:29:38;;;;;;;9.80;1.63;;;;;;;;;;4963871;28;20062;-73
2023/01/08 10:32:09;;;;;;;13.50;1.85;;;;;;;;;;4964101;28;20074;-73
2023/01/08 10:34:42;;;;;;;11.80;2.10;;;;;;;;;;4963793;28;20054;-73
2023/01/08 10:37:15;;;;;;;13.10;2.65;;;;;;;;;;4961256;28;20085;-73
2023/01/08 10:39:46;;;;;;;13.63;2.20;;;;;;;;;;4960487;28;20049;-73
2023/01/08 10:42:14;;;;;;;12.82;1.80;;;;;;;;;;4961864;28;20054;-73
2023/01/08 10:44:48;;;;;;;15.57;2.50;;;;;;;;;;4962689;28;20055;-73
2023/01/08 10:47:18;;;;;;;11.15;1.65;;;;;;;;;;4962022;28;20058;-73
2023/01/08 10:49:45;;;;;;;16.65;1.80;;;;;;;;;;4966095;28;20055;-73
2023/01/08 10:52:25;;;;;;;12.93;1.83;;;;;;;;;;4961857;28;20133;-73
2023/01/08 10:54:52;;;;;;;6.85;1.95;;;;;;;;;;4962100;28;20078;-73
2023/01/08 10:57:23;;;;;;;12.55;1.90;;;;;;;;;;4966330;28;20058;-73
2023/01/08 10:59:52;;;;;;;15.00;2.03;;;;;;;;;;4967572;28;20053;-73
2023/01/08 11:02:26;;;;;;;12.00;1.80;;;;;;;;;;4967483;28;20043;-73
2023/01/08 11:04:53;;;;;;;17.48;2.53;;;;;;;;;;4959221;28;20047;-73
2023/01/08 11:07:22;;;;;;;15.07;1.70;;;;;;;;;;4946350;28;20051;-73
2023/01/08 11:09:50;;;;;;;10.10;1.73;;;;;;;;;;4954705;28;20055;-73
2023/01/08 11:12:28;;;;;;;9.85;1.58;;;;;;;;;;4947279;28;20039;-73
2023/01/08 11:14:57;;;;;;;6.85;1.63;;;;;;;;;;4944432;28;20039;-73
2023/01/08 11:17:25;;;;;;;20.00;2.78;;;;;;;;;;4952350;28;20047;-73
2023/01/08 11:19:52;;;;;;;13.02;1.90;;;;;;;;;;4952677;28;20506;-73
2023/01/08 11:22:20;;;;;;;10.00;2.25;;;;;;;;;;4946992;29;20064;-73
2023/01/08 11:24:48;;;;;;;15.80;2.05;;;;;;;;;;4950368;29;20054;-73
2023/01/08 11:27:17;;;;;;;13.48;2.35;;;;;;;;;;4949302;29;20047;-73
2023/01/08 11:29:46;;;;;;;13.82;1.60;;;;;;;;;;4933900;29;20486;-73
2023/01/08 11:32:27;;;;;;;19.77;2.00;;;;;;;;;;4949176;29;20051;-72
2023/01/08 11:34:56;;;;;;;14.48;2.22;;;;;;;;;;4947056;29;20063;-73
2023/01/08 11:37:26;;;;;;;15.38;2.10;;;;;;;;;;4946688;29;20058;-73
2023/01/08 11:39:54;;;;;;;12.20;1.75;;;;;;;;;;4929604;29;20067;-72
2023/01/08 11:42:32;;;;;;;18.48;2.33;;;;;;;;;;4933597;29;20051;-73
2023/01/08 11:45:11;;;;;;;12.70;2.10;;;;;;;;;;4947524;29;20050;-73
2023/01/08 11:47:49;;;;;;;13.18;1.70;;;;;;;;;;4929203;29;20056;-72
2023/01/08 11:50:21;;;;;;;15.48;2.72;;;;;;;;;;4928449;29;20062;-73
2023/01/08 11:52:55;;;;;;;11.88;2.13;;;;;;;;;;4946053;28;20495;-72
2023/01/08 11:55:32;;;;;;;14.50;2.47;;;;;;;;;;4934272;29;20058;-73
2023/01/08 11:58:22;;;;;;;16.92;2.22;;;;;;;;;;4933801;29;20054;-73
2023/01/08 12:01:13;;;;;;;14.98;2.15;;;;;;;;;;4950147;29;20043;-72
2023/01/08 12:03:43;;;;;;;17.13;2.13;;;;;;;;;;4949910;28;20051;-72
2023/01/08 12:06:17;;;;;;;14.98;2.22;;;;;;;;;;4938071;29;20039;-73
2023/01/08 12:08:49;;;;;;;15.15;2.33;;;;;;;;;;4937145;29;20060;-72
2023/01/08 12:11:18;;;;;;;14.45;2.60;;;;;;;;;;4954246;29;20561;-72
2023/01/08 12:13:57;;;;;;;21.35;2.83;;;;;;;;;;4954065;29;20374;-72
2023/01/08 12:16:42;;;;;;;13.20;2.15;;;;;;;;;;4954349;29;20126;-72
2023/01/08 12:19:20;;;;;;;19.05;3.38;;;;;;;;;;4927861;29;20054;-73
2023/01/08 12:21:54;;;;;;;11.75;2.65;;;;;;;;;;4940081;29;20055;-73
2023/01/08 12:24:37;;;;;;;17.38;2.78;;;;;;;;;;4951464;28;20047;-73
2023/01/08 12:27:12;;;;;;;10.88;2.35;;;;;;;;;;4951968;29;20074;-73
2023/01/08 12:29:54;;;;;;;24.23;3.40;;;;;;;;;;4945826;29;20051;-73
2023/01/08 12:32:24;;;;;;;15.80;2.40;;;;;;;;;;4945176;29;20058;-73
2023/01/08 12:34:56;;;;;;;13.98;2.47;;;;;;;;;;4954441;29;20556;-73
2023/01/08 12:37:27;;;;;;;17.35;2.70;;;;;;;;;;4944350;29;20071;-73
2023/01/08 12:39:59;;;;;;;17.85;2.90;;;;;;;;;;4953994;29;20063;-73
2023/01/08 12:42:29;;;;;;;15.57;2.50;;;;;;;;;;4939001;29;20069;-73
2023/01/08 12:44:58;;;;;;;14.18;2.33;;;;;;;;;;4934969;29;20055;-73
2023/01/08 12:47:28;;;;;;;15.77;2.50;;;;;;;;;;4949660;29;20494;-72
2023/01/08 12:50:02;;;;;;;11.80;2.40;;;;;;;;;;4948287;29;20065;-73
2023/01/08 12:52:35;;;;;;;16.77;2.30;;;;;;;;;;4952537;29;20492;-73
2023/01/08 12:55:06;;;;;;;13.15;2.83;;;;;;;;;;4935587;29;20354;-73
2023/01/08 12:57:35;;;;;;;16.05;2.40;;;;;;;;;;4937002;29;20051;-73
2023/01/08 13:00:04;;;;;;;12.82;2.33;;;;;;;;;;4950930;29;20521;-73
2023/01/08 13:02:35;;;;;;;16.73;2.67;;;;;;;;;;4949038;29;20055;-73
2023/01/08 13:05:13;;;;;;;13.10;2.33;;;;;;;;;;4953954;28;20055;-72
2023/01/08 13:07:44;;;;;;;12.50;2.10;;;;;;;;;;4963314;28;20047;-73
2023/01/08 13:10:20;;;;;;;12.85;2.50;;;;;;;;;;4963455;28;20043;-73
2023/01/08 13:12:50;;;;;;;14.52;2.30;;;;;;;;;;4964233;28;20094;-73
2023/01/08 13:15:20;;;;;;;15.73;2.60;;;;;;;;;;4962662;28;20051;-73
2023/01/08 13:17:48;;;;;;;19.88;2.53;;;;;;;;;;4969087;28;20134;-73
2023/01/08 13:20:21;;;;;;;9.23;2.15;;;;;;;;;;4982121;28;20062;-73
2023/01/08 13:22:52;;;;;;;12.98;2.60;;;;;;;;;;4961806;28;20055;-73
2023/01/08 13:25:28;;;;;;;9.43;1.95;;;;;;;;;;4970814;28;20051;-73
2023/01/08 13:27:55;;;;;;;10.15;2.30;;;;;;;;;;4964771;28;20504;-74
2023/01/08 13:30:41;;;;;;;10.57;2.20;;;;;;;;;;4963097;28;20058;-73
2023/01/08 13:33:35;;;;;;;8.88;2.05;;;;;;;;;;4966464;28;20047;-73
2023/01/08 13:36:16;;;;;;;8.27;2.25;;;;;;;;;;4943558;28;20074;-73
2023/01/08 13:38:44;;;;;;;13.70;2.45;;;;;;;;;;4965427;28;20066;-73
2023/01/08 13:41:27;;;;;;;10.63;2.08;;;;;;;;;;4967755;28;20394;-73
2023/01/08 13:43:57;;;;;;;11.23;1.67;;;;;;;;;;4959450;28;20070;-74
2023/01/08 13:46:25;;;;;;;13.60;1.77;;;;;;;;;;4965370;28;20059;-74
2023/01/08 13:48:56;;;;;;;7.90;1.85;;;;;;;;;;4962025;28;20093;-73
2023/01/08 13:51:40;;;;;;;7.78;2.05;;;;;;;;;;4959444;28;20458;-74
2023/01/08 13:54:16;;;;;;;12.07;2.40;;;;;;;;;;4978655;28;20122;-74
2023/01/08 13:56:44;;;;;;;9.93;2.63;;;;;;;;;;4967711;28;20528;-73
2023/01/08 13:59:19;;;;;;;11.27;2.30;;;;;;;;;;4959771;28;20054;-73
2023/01/08 14:01:52;;;;;;;11.10;2.00;;;;;;;;;;4966578;28;20059;-73
2023/01/08 14:04:21;;;;;;;9.63;2.08;;;;;;;;;;4966729;28;20122;-73
2023/01/08 14:06:50;;;;;;;9.55;1.90;;;;;;;;;;4970304;28;20101;-72
2023/01/08 14:09:21;;;;;;;12.02;2.08;;;;;;;;;;4961665;28;20066;-72
2023/01/08 14:11:49;;;;;;;9.45;1.63;;;;;;;;;;4970024;28;20062;-73
2023/01/08 14:14:17;;;;;;;12.30;2.90;;;;;;;;;;4962518;28;20117;-74
2023/01/08 14:16:45;;;;;;;10.07;2.42;;;;;;;;;;4966965;28;20050;-70
2023/01/08 14:19:15;;;;;;;7.53;1.90;;;;;;;;;;4959430;28;20065;-70
2023/01/08 14:21:46;;;;;;;9.90;2.30;;;;;;;;;;4965055;28;20058;-70
2023/01/08 14:24:16;;;;;;;7.40;1.77;;;;;;;;;;4965044;28;20043;-70
2023/01/08 14:26:45;;;;;;;9.32;2.22;;;;;;;;;;4956906;28;20062;-70
2023/01/08 14:29:14;;;;;;;8.50;1.48;;;;;;;;;;4963305;28;20055;-70
2023/01/08 14:31:46;;;;;;;6.90;1.50;;;;;;;;;;4963522;28;20078;-70
2023/01/08 14:34:14;;;;;;;11.18;1.92;;;;;;;;;;4968745;28;20055;-70
2023/01/08 14:36:41;;;;;;;7.70;1.77;;;;;;;;;;4969951;28;20039;-70
2023/01/08 14:39:11;;;;;;;6.45;1.40;;;;;;;;;;4959402;28;20050;-70
2023/01/08 14:44:27;;;;;;;11.75;1.60;;;;;;;;;;4960226;28;20051;-71
2023/01/08 14:46:55;;;;;;;6.10;1.38;;;;;;;;;;4961759;28;20060;-71
2023/01/08 14:49:24;;;;;;;6.60;1.95;;;;;;;;;;4963693;28;20047;-70